sensor_id;sensor_type;location;lat;lon;timestamp;P1;durP1;ratioP1;P2;durP2;ratioP2
25231;SDS011;13176;51.140;6.290;2023-04-25T00:00:51;17.50;;;15.05;;
25231;SDS011;13176;51.140;6.290;2023-04-25T00:03:18;18.60;;;14.70;;
25231;SDS011;13176;51.140;6.290;2023-04-25T00:05:45;20.65;;;15.00;;
25231;SDS011;13176;51.140;6.290;2023-04-25T00:08:12;21.00;;;15.50;;
25231;SDS011;13176;51.140;6.290;2023-04-25T00:10:38;19.17;;;15.45;;
25231;SDS011;13176;51.140;6.290;2023-04-25T00:13:04;20.88;;;15.30;;
25231;SDS011;13176;51.140;6.290;2023-04-25T00:15:32;18.65;;;15.48;;
25231;SDS011;13176;51.140;6.290;2023-04-25T00:17:58;18.50;;;15.32;;
25231;SDS011;13176;51.140;6.290;2023-04-25T00:20:25;15.35;;;13.82;;
25231;SDS011;13176;51.140;6.290;2023-04-25T00:22:51;18.67;;;14.40;;
25231;SDS011;13176;51.140;6.290;2023-04-25T00:25:19;17.67;;;14.30;;
25231;SDS011;13176;51.140;6.290;2023-04-25T00:27:45;19.60;;;13.75;;
25231;SDS011;13176;51.140;6.290;2023-04-25T00:30:12;15.85;;;13.23;;
25231;SDS011;13176;51.140;6.290;2023-04-25T00:32:39;18.50;;;15.48;;
25231;SDS011;13176;51.140;6.290;2023-04-25T00:35:05;16.88;;;15.20;;
25231;SDS011;13176;51.140;6.290;2023-04-25T00:37:32;16.75;;;15.13;;
25231;SDS011;13176;51.140;6.290;2023-04-25T00:39:58;18.73;;;14.75;;
25231;SDS011;13176;51.140;6.290;2023-04-25T00:42:25;17.67;;;15.82;;
25231;SDS011;13176;51.140;6.290;2023-04-25T00:44:52;20.55;;;16.55;;
25231;SDS011;13176;51.140;6.290;2023-04-25T00:47:19;19.40;;;16.05;;
25231;SDS011;13176;51.140;6.290;2023-04-25T00:49:45;18.38;;;16.08;;
25231;SDS011;13176;51.140;6.290;2023-04-25T00:52:12;16.80;;;15.20;;
25231;SDS011;13176;51.140;6.290;2023-04-25T00:54:38;22.38;;;16.95;;
25231;SDS011;13176;51.140;6.290;2023-04-25T00:57:05;22.25;;;16.42;;
25231;SDS011;13176;51.140;6.290;2023-04-25T00:59:32;19.48;;;17.02;;
25231;SDS011;13176;51.140;6.290;2023-04-25T01:01:59;17.85;;;15.77;;
25231;SDS011;13176;51.140;6.290;2023-04-25T01:04:27;17.90;;;15.98;;
25231;SDS011;13176;51.140;6.290;2023-04-25T01:06:53;17.58;;;15.80;;
25231;SDS011;13176;51.140;6.290;2023-04-25T01:09:20;16.52;;;14.93;;
25231;SDS011;13176;51.140;6.290;2023-04-25T01:11:48;16.85;;;15.20;;
25231;SDS011;13176;51.140;6.290;2023-04-25T01:14:15;18.20;;;15.80;;
25231;SDS011;13176;51.140;6.290;2023-04-25T01:16:42;18.40;;;15.15;;
25231;SDS011;13176;51.140;6.290;2023-04-25T01:19:09;18.35;;;15.80;;
25231;SDS011;13176;51.140;6.290;2023-04-25T01:21:39;16.17;;;14.68;;
25231;SDS011;13176;51.140;6.290;2023-04-25T01:24:06;16.80;;;15.20;;
25231;SDS011;13176;51.140;6.290;2023-04-25T01:26:32;17.10;;;15.40;;
25231;SDS011;13176;51.140;6.290;2023-04-25T01:29:00;19.30;;;14.93;;
25231;SDS011;13176;51.140;6.290;2023-04-25T01:31:27;19.27;;;14.15;;
25231;SDS011;13176;51.140;6.290;2023-04-25T01:33:54;19.40;;;15.05;;
25231;SDS011;13176;51.140;6.290;2023-04-25T01:36:20;17.77;;;16.02;;
25231;SDS011;13176;51.140;6.290;2023-04-25T01:38:48;17.27;;;15.57;;
25231;SDS011;13176;51.140;6.290;2023-04-25T01:41:15;18.25;;;16.00;;
25231;SDS011;13176;51.140;6.290;2023-04-25T01:43:43;17.77;;;15.00;;
25231;SDS011;13176;51.140;6.290;2023-04-25T01:46:10;19.05;;;15.15;;
25231;SDS011;13176;51.140;6.290;2023-04-25T01:48:38;16.52;;;14.90;;
25231;SDS011;13176;51.140;6.290;2023-04-25T01:51:04;21.63;;;16.85;;
25231;SDS011;13176;51.140;6.290;2023-04-25T01:53:31;17.40;;;15.73;;
25231;SDS011;13176;51.140;6.290;2023-04-25T01:55:57;18.95;;;15.73;;
25231;SDS011;13176;51.140;6.290;2023-04-25T01:58:24;16.70;;;15.05;;
25231;SDS011;13176;51.140;6.290;2023-04-25T02:00:50;18.48;;;16.70;;
25231;SDS011;13176;51.140;6.290;2023-04-25T02:03:17;20.20;;;17.23;;
25231;SDS011;13176;51.140;6.290;2023-04-25T02:05:43;20.33;;;18.50;;
25231;SDS011;13176;51.140;6.290;2023-04-25T02:08:10;21.13;;;18.92;;
25231;SDS011;13176;51.140;6.290;2023-04-25T02:10:36;21.35;;;19.27;;
25231;SDS011;13176;51.140;6.290;2023-04-25T02:13:03;21.95;;;19.75;;
25231;SDS011;13176;51.140;6.290;2023-04-25T02:15:31;23.23;;;20.40;;
25231;SDS011;13176;51.140;6.290;2023-04-25T02:17:58;22.80;;;20.48;;
25231;SDS011;13176;51.140;6.290;2023-04-25T02:20:26;22.92;;;20.75;;
25231;SDS011;13176;51.140;6.290;2023-04-25T02:22:53;22.48;;;20.45;;
25231;SDS011;13176;51.140;6.290;2023-04-25T02:25:20;21.67;;;19.63;;
25231;SDS011;13176;51.140;6.290;2023-04-25T02:27:47;22.70;;;20.60;;
25231;SDS011;13176;51.140;6.290;2023-04-25T02:30:14;21.60;;;19.55;;
25231;SDS011;13176;51.140;6.290;2023-04-25T02:32:41;22.02;;;19.80;;
25231;SDS011;13176;51.140;6.290;2023-04-25T02:35:07;26.52;;;21.88;;
25231;SDS011;13176;51.140;6.290;2023-04-25T02:37:35;24.67;;;22.27;;
25231;SDS011;13176;51.140;6.290;2023-04-25T02:40:02;22.65;;;20.42;;
25231;SDS011;13176;51.140;6.290;2023-04-25T02:42:30;23.27;;;21.08;;
25231;SDS011;13176;51.140;6.290;2023-04-25T02:44:56;23.52;;;21.35;;
25231;SDS011;13176;51.140;6.290;2023-04-25T02:47:23;25.10;;;22.65;;
25231;SDS011;13176;51.140;6.290;2023-04-25T02:49:49;24.73;;;22.35;;
25231;SDS011;13176;51.140;6.290;2023-04-25T02:52:16;26.92;;;23.02;;
25231;SDS011;13176;51.140;6.290;2023-04-25T02:54:42;25.65;;;22.98;;
25231;SDS011;13176;51.140;6.290;2023-04-25T02:57:09;27.67;;;25.02;;
25231;SDS011;13176;51.140;6.290;2023-04-25T02:59:35;29.60;;;26.70;;
25231;SDS011;13176;51.140;6.290;2023-04-25T03:02:02;26.45;;;23.85;;
25231;SDS011;13176;51.140;6.290;2023-04-25T03:04:28;26.88;;;24.63;;
25231;SDS011;13176;51.140;6.290;2023-04-25T03:06:54;25.45;;;23.05;;
25231;SDS011;13176;51.140;6.290;2023-04-25T03:09:21;28.83;;;25.92;;
25231;SDS011;13176;51.140;6.290;2023-04-25T03:11:48;27.73;;;25.35;;
25231;SDS011;13176;51.140;6.290;2023-04-25T03:14:14;28.35;;;25.95;;
25231;SDS011;13176;51.140;6.290;2023-04-25T03:16:41;29.55;;;26.98;;
25231;SDS011;13176;51.140;6.290;2023-04-25T03:19:07;31.90;;;28.63;;
25231;SDS011;13176;51.140;6.290;2023-04-25T03:21:34;29.98;;;27.10;;
25231;SDS011;13176;51.140;6.290;2023-04-25T03:24:02;31.38;;;28.73;;
25231;SDS011;13176;51.140;6.290;2023-04-25T03:26:30;31.73;;;28.48;;
25231;SDS011;13176;51.140;6.290;2023-04-25T03:28:56;30.42;;;28.15;;
25231;SDS011;13176;51.140;6.290;2023-04-25T03:31:23;31.10;;;28.33;;
25231;SDS011;13176;51.140;6.290;2023-04-25T03:33:49;32.33;;;29.63;;
25231;SDS011;13176;51.140;6.290;2023-04-25T03:36:16;32.83;;;29.70;;
25231;SDS011;13176;51.140;6.290;2023-04-25T03:38:42;27.77;;;25.75;;
25231;SDS011;13176;51.140;6.290;2023-04-25T03:41:09;29.15;;;26.77;;
25231;SDS011;13176;51.140;6.290;2023-04-25T03:43:35;30.13;;;27.27;;
25231;SDS011;13176;51.140;6.290;2023-04-25T03:46:02;29.05;;;26.55;;
25231;SDS011;13176;51.140;6.290;2023-04-25T03:48:28;28.70;;;25.75;;
25231;SDS011;13176;51.140;6.290;2023-04-25T03:50:55;29.10;;;26.15;;
25231;SDS011;13176;51.140;6.290;2023-04-25T03:53:21;27.63;;;25.08;;
25231;SDS011;13176;51.140;6.290;2023-04-25T03:55:47;28.02;;;24.77;;
25231;SDS011;13176;51.140;6.290;2023-04-25T03:58:14;30.35;;;27.45;;
25231;SDS011;13176;51.140;6.290;2023-04-25T04:00:40;27.98;;;25.17;;
25231;SDS011;13176;51.140;6.290;2023-04-25T04:03:06;27.80;;;24.83;;
25231;SDS011;13176;51.140;6.290;2023-04-25T04:05:33;27.60;;;24.98;;
25231;SDS011;13176;51.140;6.290;2023-04-25T04:08:00;26.95;;;24.58;;
25231;SDS011;13176;51.140;6.290;2023-04-25T04:10:26;27.73;;;24.42;;
25231;SDS011;13176;51.140;6.290;2023-04-25T04:12:52;27.17;;;24.75;;
25231;SDS011;13176;51.140;6.290;2023-04-25T04:15:19;25.83;;;23.35;;
25231;SDS011;13176;51.140;6.290;2023-04-25T04:17:45;29.48;;;26.52;;
25231;SDS011;13176;51.140;6.290;2023-04-25T04:20:13;27.33;;;24.80;;
25231;SDS011;13176;51.140;6.290;2023-04-25T04:22:39;26.00;;;23.63;;
25231;SDS011;13176;51.140;6.290;2023-04-25T04:25:06;27.92;;;25.30;;
25231;SDS011;13176;51.140;6.290;2023-04-25T04:27:33;26.98;;;24.55;;
25231;SDS011;13176;51.140;6.290;2023-04-25T04:30:00;26.20;;;23.45;;
25231;SDS011;13176;51.140;6.290;2023-04-25T04:32:27;24.83;;;22.55;;
25231;SDS011;13176;51.140;6.290;2023-04-25T04:34:56;27.15;;;22.67;;
25231;SDS011;13176;51.140;6.290;2023-04-25T04:37:23;23.40;;;21.20;;
25231;SDS011;13176;51.140;6.290;2023-04-25T04:39:50;24.80;;;22.15;;
25231;SDS011;13176;51.140;6.290;2023-04-25T04:42:16;26.40;;;21.38;;
25231;SDS011;13176;51.140;6.290;2023-04-25T04:44:43;26.65;;;20.30;;
25231;SDS011;13176;51.140;6.290;2023-04-25T04:47:10;24.80;;;21.38;;
25231;SDS011;13176;51.140;6.290;2023-04-25T04:49:38;24.45;;;22.20;;
25231;SDS011;13176;51.140;6.290;2023-04-25T04:52:05;24.38;;;21.95;;
25231;SDS011;13176;51.140;6.290;2023-04-25T04:54:31;23.70;;;20.67;;
25231;SDS011;13176;51.140;6.290;2023-04-25T04:56:57;26.10;;;20.67;;
25231;SDS011;13176;51.140;6.290;2023-04-25T04:59:24;22.55;;;20.30;;
25231;SDS011;13176;51.140;6.290;2023-04-25T05:01:52;22.08;;;19.83;;
25231;SDS011;13176;51.140;6.290;2023-04-25T05:04:18;21.95;;;19.25;;
25231;SDS011;13176;51.140;6.290;2023-04-25T05:06:45;22.02;;;19.75;;
25231;SDS011;13176;51.140;6.290;2023-04-25T05:09:14;21.65;;;19.65;;
25231;SDS011;13176;51.140;6.290;2023-04-25T05:11:41;23.77;;;18.98;;
25231;SDS011;13176;51.140;6.290;2023-04-25T05:14:07;22.48;;;18.40;;
25231;SDS011;13176;51.140;6.290;2023-04-25T05:16:33;19.85;;;17.88;;
25231;SDS011;13176;51.140;6.290;2023-04-25T05:19:00;21.55;;;16.98;;
25231;SDS011;13176;51.140;6.290;2023-04-25T05:21:27;18.17;;;16.10;;
25231;SDS011;13176;51.140;6.290;2023-04-25T05:23:54;17.48;;;15.60;;
25231;SDS011;13176;51.140;6.290;2023-04-25T05:26:20;18.42;;;16.02;;
25231;SDS011;13176;51.140;6.290;2023-04-25T05:28:46;22.70;;;15.68;;
25231;SDS011;13176;51.140;6.290;2023-04-25T05:31:13;17.02;;;15.05;;
25231;SDS011;13176;51.140;6.290;2023-04-25T05:33:39;17.65;;;14.85;;
25231;SDS011;13176;51.140;6.290;2023-04-25T05:36:06;21.13;;;16.13;;
25231;SDS011;13176;51.140;6.290;2023-04-25T05:38:33;16.83;;;15.10;;
25231;SDS011;13176;51.140;6.290;2023-04-25T05:41:00;17.15;;;15.27;;
25231;SDS011;13176;51.140;6.290;2023-04-25T05:43:26;23.52;;;15.52;;
25231;SDS011;13176;51.140;6.290;2023-04-25T05:45:55;23.30;;;16.25;;
25231;SDS011;13176;51.140;6.290;2023-04-25T05:48:22;21.60;;;15.15;;
25231;SDS011;13176;51.140;6.290;2023-04-25T05:50:48;16.55;;;14.85;;
25231;SDS011;13176;51.140;6.290;2023-04-25T05:53:14;17.88;;;14.75;;
25231;SDS011;13176;51.140;6.290;2023-04-25T05:55:41;22.55;;;15.65;;
25231;SDS011;13176;51.140;6.290;2023-04-25T05:58:07;20.25;;;15.52;;
25231;SDS011;13176;51.140;6.290;2023-04-25T06:00:34;19.88;;;14.52;;
25231;SDS011;13176;51.140;6.290;2023-04-25T06:03:00;15.68;;;12.25;;
25231;SDS011;13176;51.140;6.290;2023-04-25T06:05:27;17.20;;;13.00;;
25231;SDS011;13176;51.140;6.290;2023-04-25T06:07:54;15.40;;;13.05;;
25231;SDS011;13176;51.140;6.290;2023-04-25T06:10:20;18.73;;;13.73;;
25231;SDS011;13176;51.140;6.290;2023-04-25T06:12:47;15.20;;;12.88;;
25231;SDS011;13176;51.140;6.290;2023-04-25T06:15:14;24.98;;;13.57;;
25231;SDS011;13176;51.140;6.290;2023-04-25T06:17:53;18.40;;;11.75;;
25231;SDS011;13176;51.140;6.290;2023-04-25T06:20:20;16.17;;;11.10;;
25231;SDS011;13176;51.140;6.290;2023-04-25T06:22:50;14.13;;;11.27;;
25231;SDS011;13176;51.140;6.290;2023-04-25T06:25:19;15.25;;;10.60;;
25231;SDS011;13176;51.140;6.290;2023-04-25T06:27:46;18.10;;;10.77;;
25231;SDS011;13176;51.140;6.290;2023-04-25T06:30:12;14.43;;;10.25;;
25231;SDS011;13176;51.140;6.290;2023-04-25T06:32:39;13.98;;;10.43;;
25231;SDS011;13176;51.140;6.290;2023-04-25T06:35:06;16.63;;;10.10;;
25231;SDS011;13176;51.140;6.290;2023-04-25T06:37:32;18.20;;;10.35;;
25231;SDS011;13176;51.140;6.290;2023-04-25T06:39:59;16.70;;;10.25;;
25231;SDS011;13176;51.140;6.290;2023-04-25T06:42:25;15.73;;;10.32;;
25231;SDS011;13176;51.140;6.290;2023-04-25T06:44:51;16.20;;;10.38;;
25231;SDS011;13176;51.140;6.290;2023-04-25T06:47:18;15.45;;;10.30;;
25231;SDS011;13176;51.140;6.290;2023-04-25T06:49:44;14.07;;;9.55;;
25231;SDS011;13176;51.140;6.290;2023-04-25T06:52:11;16.00;;;9.98;;
25231;SDS011;13176;51.140;6.290;2023-04-25T06:54:37;22.30;;;9.93;;
25231;SDS011;13176;51.140;6.290;2023-04-25T06:57:03;22.38;;;9.90;;
25231;SDS011;13176;51.140;6.290;2023-04-25T06:59:30;15.30;;;9.80;;
25231;SDS011;13176;51.140;6.290;2023-04-25T07:01:56;16.50;;;9.80;;
25231;SDS011;13176;51.140;6.290;2023-04-25T07:04:23;16.42;;;9.07;;
25231;SDS011;13176;51.140;6.290;2023-04-25T07:06:50;16.33;;;9.50;;
25231;SDS011;13176;51.140;6.290;2023-04-25T07:09:16;15.10;;;8.85;;
25231;SDS011;13176;51.140;6.290;2023-04-25T07:11:43;19.52;;;8.48;;
25231;SDS011;13176;51.140;6.290;2023-04-25T07:14:09;15.45;;;7.45;;
25231;SDS011;13176;51.140;6.290;2023-04-25T07:16:36;19.15;;;7.38;;
25231;SDS011;13176;51.140;6.290;2023-04-25T07:19:02;16.92;;;8.10;;
25231;SDS011;13176;51.140;6.290;2023-04-25T07:21:32;12.43;;;7.07;;
25231;SDS011;13176;51.140;6.290;2023-04-25T07:23:58;15.27;;;7.32;;
25231;SDS011;13176;51.140;6.290;2023-04-25T07:26:25;10.13;;;7.10;;
25231;SDS011;13176;51.140;6.290;2023-04-25T07:28:51;12.50;;;6.70;;
25231;SDS011;13176;51.140;6.290;2023-04-25T07:31:18;12.25;;;7.45;;
25231;SDS011;13176;51.140;6.290;2023-04-25T07:33:44;11.32;;;6.68;;
25231;SDS011;13176;51.140;6.290;2023-04-25T07:36:12;13.27;;;6.57;;
25231;SDS011;13176;51.140;6.290;2023-04-25T07:38:38;12.05;;;5.68;;
25231;SDS011;13176;51.140;6.290;2023-04-25T07:41:05;10.23;;;6.35;;
25231;SDS011;13176;51.140;6.290;2023-04-25T07:43:34;12.20;;;5.95;;
25231;SDS011;13176;51.140;6.290;2023-04-25T07:46:00;15.80;;;6.03;;
25231;SDS011;13176;51.140;6.290;2023-04-25T07:48:27;14.77;;;6.63;;
25231;SDS011;13176;51.140;6.290;2023-04-25T07:50:53;14.82;;;6.55;;
25231;SDS011;13176;51.140;6.290;2023-04-25T07:53:20;10.15;;;6.05;;
25231;SDS011;13176;51.140;6.290;2023-04-25T07:55:47;13.88;;;6.50;;
25231;SDS011;13176;51.140;6.290;2023-04-25T07:58:13;13.13;;;7.05;;
25231;SDS011;13176;51.140;6.290;2023-04-25T08:00:41;16.70;;;6.20;;
25231;SDS011;13176;51.140;6.290;2023-04-25T08:03:09;13.35;;;5.93;;
25231;SDS011;13176;51.140;6.290;2023-04-25T08:05:35;16.35;;;6.28;;
25231;SDS011;13176;51.140;6.290;2023-04-25T08:08:02;12.65;;;5.85;;
25231;SDS011;13176;51.140;6.290;2023-04-25T08:10:29;12.38;;;5.57;;
25231;SDS011;13176;51.140;6.290;2023-04-25T08:12:55;10.35;;;5.43;;
25231;SDS011;13176;51.140;6.290;2023-04-25T08:15:22;10.38;;;5.63;;
25231;SDS011;13176;51.140;6.290;2023-04-25T08:17:48;9.50;;;5.38;;
25231;SDS011;13176;51.140;6.290;2023-04-25T08:20:14;9.32;;;5.75;;
25231;SDS011;13176;51.140;6.290;2023-04-25T08:22:41;10.75;;;5.60;;
25231;SDS011;13176;51.140;6.290;2023-04-25T08:25:08;9.68;;;5.30;;
25231;SDS011;13176;51.140;6.290;2023-04-25T08:27:34;10.68;;;5.63;;
25231;SDS011;13176;51.140;6.290;2023-04-25T08:30:01;9.13;;;5.38;;
25231;SDS011;13176;51.140;6.290;2023-04-25T08:32:29;11.02;;;5.70;;
25231;SDS011;13176;51.140;6.290;2023-04-25T08:34:56;9.80;;;5.90;;
25231;SDS011;13176;51.140;6.290;2023-04-25T08:37:22;11.57;;;5.70;;
25231;SDS011;13176;51.140;6.290;2023-04-25T08:39:49;12.43;;;5.85;;
25231;SDS011;13176;51.140;6.290;2023-04-25T08:42:18;12.82;;;5.90;;
25231;SDS011;13176;51.140;6.290;2023-04-25T08:44:47;8.68;;;5.57;;
25231;SDS011;13176;51.140;6.290;2023-04-25T08:47:14;11.20;;;6.32;;
25231;SDS011;13176;51.140;6.290;2023-04-25T08:49:43;9.90;;;6.00;;
25231;SDS011;13176;51.140;6.290;2023-04-25T08:52:12;6.60;;;5.05;;
25231;SDS011;13176;51.140;6.290;2023-04-25T08:54:43;4.75;;;4.28;;
25231;SDS011;13176;51.140;6.290;2023-04-25T08:57:12;9.10;;;4.57;;
25231;SDS011;13176;51.140;6.290;2023-04-25T08:59:39;9.20;;;5.15;;
25231;SDS011;13176;51.140;6.290;2023-04-25T09:02:10;12.65;;;5.13;;
25231;SDS011;13176;51.140;6.290;2023-04-25T09:04:44;10.88;;;5.57;;
25231;SDS011;13176;51.140;6.290;2023-04-25T09:07:11;8.70;;;4.97;;
25231;SDS011;13176;51.140;6.290;2023-04-25T09:09:38;8.05;;;5.13;;
25231;SDS011;13176;51.140;6.290;2023-04-25T09:12:05;5.60;;;4.85;;
25231;SDS011;13176;51.140;6.290;2023-04-25T09:14:32;12.50;;;5.22;;
25231;SDS011;13176;51.140;6.290;2023-04-25T09:16:59;8.85;;;5.45;;
25231;SDS011;13176;51.140;6.290;2023-04-25T09:19:34;7.68;;;4.95;;
25231;SDS011;13176;51.140;6.290;2023-04-25T09:22:07;6.22;;;4.93;;
25231;SDS011;13176;51.140;6.290;2023-04-25T09:24:35;8.82;;;4.97;;
25231;SDS011;13176;51.140;6.290;2023-04-25T09:27:16;6.88;;;5.43;;
25231;SDS011;13176;51.140;6.290;2023-04-25T09:29:44;10.43;;;5.53;;
25231;SDS011;13176;51.140;6.290;2023-04-25T09:32:17;9.85;;;5.60;;
25231;SDS011;13176;51.140;6.290;2023-04-25T09:34:51;4.85;;;4.15;;
25231;SDS011;13176;51.140;6.290;2023-04-25T09:39:49;5.28;;;4.05;;
25231;SDS011;13176;51.140;6.290;2023-04-25T09:42:21;6.68;;;4.90;;
25231;SDS011;13176;51.140;6.290;2023-04-25T09:44:48;5.70;;;4.38;;
25231;SDS011;13176;51.140;6.290;2023-04-25T09:47:15;9.60;;;4.45;;
25231;SDS011;13176;51.140;6.290;2023-04-25T09:49:43;7.53;;;4.97;;
25231;SDS011;13176;51.140;6.290;2023-04-25T09:52:14;52.25;;;10.27;;
25231;SDS011;13176;51.140;6.290;2023-04-25T09:54:43;10.60;;;5.35;;
25231;SDS011;13176;51.140;6.290;2023-04-25T09:59:44;39.53;;;7.75;;
25231;SDS011;13176;51.140;6.290;2023-04-25T10:02:13;9.63;;;4.85;;
25231;SDS011;13176;51.140;6.290;2023-04-25T10:04:41;4.85;;;4.32;;
25231;SDS011;13176;51.140;6.290;2023-04-25T10:07:11;7.72;;;4.35;;
25231;SDS011;13176;51.140;6.290;2023-04-25T10:09:38;9.30;;;4.68;;
25231;SDS011;13176;51.140;6.290;2023-04-25T10:12:06;7.35;;;4.30;;
25231;SDS011;13176;51.140;6.290;2023-04-25T10:14:34;4.53;;;3.90;;
25231;SDS011;13176;51.140;6.290;2023-04-25T10:17:01;8.70;;;4.38;;
25231;SDS011;13176;51.140;6.290;2023-04-25T10:19:28;5.85;;;4.43;;
25231;SDS011;13176;51.140;6.290;2023-04-25T10:21:58;4.32;;;3.92;;
25231;SDS011;13176;51.140;6.290;2023-04-25T10:24:30;12.57;;;4.57;;
25231;SDS011;13176;51.140;6.290;2023-04-25T10:26:59;10.40;;;4.40;;
25231;SDS011;13176;51.140;6.290;2023-04-25T10:29:25;8.77;;;4.40;;
25231;SDS011;13176;51.140;6.290;2023-04-25T10:31:52;54.20;;;9.00;;
25231;SDS011;13176;51.140;6.290;2023-04-25T10:34:19;8.98;;;4.80;;
25231;SDS011;13176;51.140;6.290;2023-04-25T10:36:51;6.20;;;4.60;;
25231;SDS011;13176;51.140;6.290;2023-04-25T10:39:24;27.58;;;7.43;;
25231;SDS011;13176;51.140;6.290;2023-04-25T10:41:55;11.18;;;5.38;;
25231;SDS011;13176;51.140;6.290;2023-04-25T10:44:22;6.03;;;4.72;;
25231;SDS011;13176;51.140;6.290;2023-04-25T10:46:52;4.88;;;4.10;;
25231;SDS011;13176;51.140;6.290;2023-04-25T10:49:31;8.80;;;4.70;;
25231;SDS011;13176;51.140;6.290;2023-04-25T10:54:54;12.68;;;4.47;;
25231;SDS011;13176;51.140;6.290;2023-04-25T11:00:13;4.93;;;4.30;;
25231;SDS011;13176;51.140;6.290;2023-04-25T11:02:45;4.97;;;3.75;;
25231;SDS011;13176;51.140;6.290;2023-04-25T11:05:22;3.88;;;3.53;;
25231;SDS011;13176;51.140;6.290;2023-04-25T11:08:02;4.97;;;4.20;;
25231;SDS011;13176;51.140;6.290;2023-04-25T11:10:33;7.88;;;5.22;;
25231;SDS011;13176;51.140;6.290;2023-04-25T11:13:01;4.82;;;4.18;;
25231;SDS011;13176;51.140;6.290;2023-04-25T11:15:28;4.88;;;4.43;;
25231;SDS011;13176;51.140;6.290;2023-04-25T11:17:55;5.45;;;4.32;;
25231;SDS011;13176;51.140;6.290;2023-04-25T11:20:22;7.28;;;3.85;;
25231;SDS011;13176;51.140;6.290;2023-04-25T11:22:52;6.95;;;3.65;;
25231;SDS011;13176;51.140;6.290;2023-04-25T11:25:19;4.40;;;4.00;;
25231;SDS011;13176;51.140;6.290;2023-04-25T11:27:52;6.10;;;3.90;;
25231;SDS011;13176;51.140;6.290;2023-04-25T11:30:20;4.18;;;3.80;;
25231;SDS011;13176;51.140;6.290;2023-04-25T11:32:47;4.72;;;3.85;;
25231;SDS011;13176;51.140;6.290;2023-04-25T11:35:14;4.43;;;3.72;;
25231;SDS011;13176;51.140;6.290;2023-04-25T11:37:42;8.18;;;4.32;;
25231;SDS011;13176;51.140;6.290;2023-04-25T11:40:12;6.93;;;4.82;;
25231;SDS011;13176;51.140;6.290;2023-04-25T11:42:41;6.93;;;4.60;;
25231;SDS011;13176;51.140;6.290;2023-04-25T11:45:10;6.75;;;4.32;;
25231;SDS011;13176;51.140;6.290;2023-04-25T11:47:37;8.13;;;4.78;;
25231;SDS011;13176;51.140;6.290;2023-04-25T11:50:05;6.60;;;4.35;;
25231;SDS011;13176;51.140;6.290;2023-04-25T11:52:40;4.63;;;4.22;;
25231;SDS011;13176;51.140;6.290;2023-04-25T11:55:09;6.55;;;4.40;;
25231;SDS011;13176;51.140;6.290;2023-04-25T11:57:39;6.40;;;4.32;;
25231;SDS011;13176;51.140;6.290;2023-04-25T12:00:11;5.43;;;4.90;;
25231;SDS011;13176;51.140;6.290;2023-04-25T12:02:44;8.63;;;4.25;;
25231;SDS011;13176;51.140;6.290;2023-04-25T12:05:13;6.20;;;3.78;;
25231;SDS011;13176;51.140;6.290;2023-04-25T12:07:58;7.85;;;4.30;;
25231;SDS011;13176;51.140;6.290;2023-04-25T12:10:36;6.10;;;3.72;;
25231;SDS011;13176;51.140;6.290;2023-04-25T12:15:46;4.05;;;3.72;;
25231;SDS011;13176;51.140;6.290;2023-04-25T12:18:12;5.80;;;4.05;;
25231;SDS011;13176;51.140;6.290;2023-04-25T12:20:39;4.60;;;3.55;;
25231;SDS011;13176;51.140;6.290;2023-04-25T12:23:07;3.88;;;3.33;;
25231;SDS011;13176;51.140;6.290;2023-04-25T12:25:37;3.70;;;3.40;;
25231;SDS011;13176;51.140;6.290;2023-04-25T12:28:16;3.75;;;3.40;;
25231;SDS011;13176;51.140;6.290;2023-04-25T12:33:24;3.42;;;3.10;;
25231;SDS011;13176;51.140;6.290;2023-04-25T12:35:53;3.35;;;2.97;;
25231;SDS011;13176;51.140;6.290;2023-04-25T12:38:20;7.18;;;3.90;;
25231;SDS011;13176;51.140;6.290;2023-04-25T12:40:55;3.88;;;3.55;;
25231;SDS011;13176;51.140;6.290;2023-04-25T12:43:22;3.97;;;3.58;;
25231;SDS011;13176;51.140;6.290;2023-04-25T12:45:52;4.13;;;3.83;;
25231;SDS011;13176;51.140;6.290;2023-04-25T12:48:20;4.55;;;4.13;;
25231;SDS011;13176;51.140;6.290;2023-04-25T12:50:48;4.85;;;4.40;;
25231;SDS011;13176;51.140;6.290;2023-04-25T12:53:17;4.75;;;4.35;;
25231;SDS011;13176;51.140;6.290;2023-04-25T12:55:45;4.57;;;3.92;;
25231;SDS011;13176;51.140;6.290;2023-04-25T12:58:14;7.30;;;4.88;;
25231;SDS011;13176;51.140;6.290;2023-04-25T13:00:41;4.63;;;4.22;;
25231;SDS011;13176;51.140;6.290;2023-04-25T13:03:08;4.35;;;4.00;;
25231;SDS011;13176;51.140;6.290;2023-04-25T13:05:37;6.75;;;4.40;;
25231;SDS011;13176;51.140;6.290;2023-04-25T13:08:04;7.75;;;4.60;;
25231;SDS011;13176;51.140;6.290;2023-04-25T13:10:32;4.25;;;3.90;;
25231;SDS011;13176;51.140;6.290;2023-04-25T13:13:05;4.55;;;4.00;;
25231;SDS011;13176;51.140;6.290;2023-04-25T13:15:32;4.80;;;3.90;;
25231;SDS011;13176;51.140;6.290;2023-04-25T13:17:58;6.35;;;3.92;;
25231;SDS011;13176;51.140;6.290;2023-04-25T13:20:25;7.13;;;3.65;;
25231;SDS011;13176;51.140;6.290;2023-04-25T13:22:51;3.50;;;3.28;;
25231;SDS011;13176;51.140;6.290;2023-04-25T13:25:18;5.30;;;3.38;;
25231;SDS011;13176;51.140;6.290;2023-04-25T13:27:44;4.22;;;3.70;;
25231;SDS011;13176;51.140;6.290;2023-04-25T13:30:12;4.97;;;4.57;;
25231;SDS011;13176;51.140;6.290;2023-04-25T13:32:39;5.70;;;4.20;;
25231;SDS011;13176;51.140;6.290;2023-04-25T13:35:10;5.90;;;5.40;;
25231;SDS011;13176;51.140;6.290;2023-04-25T13:37:38;8.38;;;4.85;;
25231;SDS011;13176;51.140;6.290;2023-04-25T13:40:05;4.97;;;4.47;;
25231;SDS011;13176;51.140;6.290;2023-04-25T13:42:36;4.63;;;4.32;;
25231;SDS011;13176;51.140;6.290;2023-04-25T13:45:03;5.68;;;5.30;;
25231;SDS011;13176;51.140;6.290;2023-04-25T13:47:30;5.35;;;4.90;;
25231;SDS011;13176;51.140;6.290;2023-04-25T13:49:57;4.55;;;4.10;;
25231;SDS011;13176;51.140;6.290;2023-04-25T13:52:23;5.78;;;3.50;;
25231;SDS011;13176;51.140;6.290;2023-04-25T13:54:50;5.95;;;3.95;;
25231;SDS011;13176;51.140;6.290;2023-04-25T13:57:17;3.78;;;3.40;;
25231;SDS011;13176;51.140;6.290;2023-04-25T13:59:44;3.75;;;3.15;;
25231;SDS011;13176;51.140;6.290;2023-04-25T14:02:10;3.47;;;3.15;;
25231;SDS011;13176;51.140;6.290;2023-04-25T14:04:37;3.75;;;3.42;;
25231;SDS011;13176;51.140;6.290;2023-04-25T14:07:04;5.18;;;3.20;;
25231;SDS011;13176;51.140;6.290;2023-04-25T14:09:31;3.67;;;3.33;;
25231;SDS011;13176;51.140;6.290;2023-04-25T14:11:57;3.80;;;3.50;;
25231;SDS011;13176;51.140;6.290;2023-04-25T14:14:23;7.18;;;3.45;;
25231;SDS011;13176;51.140;6.290;2023-04-25T14:16:50;4.35;;;3.65;;
25231;SDS011;13176;51.140;6.290;2023-04-25T14:19:20;3.60;;;3.40;;
25231;SDS011;13176;51.140;6.290;2023-04-25T14:21:47;5.18;;;3.83;;
25231;SDS011;13176;51.140;6.290;2023-04-25T14:24:15;3.60;;;3.30;;
25231;SDS011;13176;51.140;6.290;2023-04-25T14:26:42;5.10;;;3.80;;
25231;SDS011;13176;51.140;6.290;2023-04-25T14:29:09;5.00;;;3.80;;
25231;SDS011;13176;51.140;6.290;2023-04-25T14:31:38;6.35;;;3.75;;
25231;SDS011;13176;51.140;6.290;2023-04-25T14:34:06;5.53;;;4.15;;
25231;SDS011;13176;51.140;6.290;2023-04-25T14:36:33;4.47;;;4.07;;
25231;SDS011;13176;51.140;6.290;2023-04-25T14:39:00;9.52;;;4.18;;
25231;SDS011;13176;51.140;6.290;2023-04-25T14:41:27;4.75;;;3.70;;
25231;SDS011;13176;51.140;6.290;2023-04-25T14:43:53;3.70;;;3.40;;
25231;SDS011;13176;51.140;6.290;2023-04-25T14:46:21;3.63;;;3.33;;
25231;SDS011;13176;51.140;6.290;2023-04-25T14:48:49;5.13;;;3.95;;
25231;SDS011;13176;51.140;6.290;2023-04-25T14:51:16;3.58;;;3.28;;